sensor_id;sensor_type;location;lat;lon;timestamp;P1;durP1;ratioP1;P2;durP2;ratioP2
36359;SDS011;22388;52.432;20.662;2023-04-24T00:00:54;15.57;;;8.75;;
36359;SDS011;22388;52.432;20.662;2023-04-24T00:04:18;20.30;;;8.38;;
36359;SDS011;22388;52.432;20.662;2023-04-24T00:07:42;14.70;;;8.43;;
36359;SDS011;22388;52.432;20.662;2023-04-24T00:11:07;16.38;;;8.57;;
36359;SDS011;22388;52.432;20.662;2023-04-24T00:14:32;15.50;;;8.30;;
36359;SDS011;22388;52.432;20.662;2023-04-24T00:17:56;14.65;;;8.43;;
36359;SDS011;22388;52.432;20.662;2023-04-24T00:21:20;16.45;;;8.27;;
36359;SDS011;22388;52.432;20.662;2023-04-24T00:24:45;15.10;;;8.05;;
36359;SDS011;22388;52.432;20.662;2023-04-24T00:28:09;13.75;;;8.90;;
36359;SDS011;22388;52.432;20.662;2023-04-24T00:31:33;16.23;;;9.32;;
36359;SDS011;22388;52.432;20.662;2023-04-24T00:34:58;15.27;;;9.50;;
36359;SDS011;22388;52.432;20.662;2023-04-24T00:38:22;13.32;;;8.65;;
36359;SDS011;22388;52.432;20.662;2023-04-24T00:41:48;17.77;;;9.45;;
36359;SDS011;22388;52.432;20.662;2023-04-24T00:45:12;16.27;;;9.35;;
36359;SDS011;22388;52.432;20.662;2023-04-24T00:48:37;16.48;;;9.63;;
36359;SDS011;22388;52.432;20.662;2023-04-24T00:52:02;15.07;;;9.23;;
36359;SDS011;22388;52.432;20.662;2023-04-24T00:55:26;18.00;;;10.25;;
36359;SDS011;22388;52.432;20.662;2023-04-24T00:58:50;14.95;;;9.32;;
36359;SDS011;22388;52.432;20.662;2023-04-24T01:02:15;15.52;;;9.63;;
36359;SDS011;22388;52.432;20.662;2023-04-24T01:05:39;14.98;;;9.45;;
36359;SDS011;22388;52.432;20.662;2023-04-24T01:09:04;19.70;;;9.52;;
36359;SDS011;22388;52.432;20.662;2023-04-24T01:12:28;14.60;;;9.27;;
36359;SDS011;22388;52.432;20.662;2023-04-24T01:15:52;15.90;;;9.98;;
36359;SDS011;22388;52.432;20.662;2023-04-24T01:19:17;18.60;;;10.25;;
36359;SDS011;22388;52.432;20.662;2023-04-24T01:22:42;20.45;;;11.15;;
36359;SDS011;22388;52.432;20.662;2023-04-24T01:26:07;15.15;;;10.70;;
36359;SDS011;22388;52.432;20.662;2023-04-24T01:29:31;12.88;;;9.32;;
36359;SDS011;22388;52.432;20.662;2023-04-24T01:32:56;17.13;;;10.32;;
36359;SDS011;22388;52.432;20.662;2023-04-24T01:36:21;17.58;;;11.18;;
36359;SDS011;22388;52.432;20.662;2023-04-24T01:39:45;17.58;;;10.80;;
36359;SDS011;22388;52.432;20.662;2023-04-24T01:43:10;20.92;;;11.30;;
36359;SDS011;22388;52.432;20.662;2023-04-24T01:46:35;19.52;;;11.07;;
36359;SDS011;22388;52.432;20.662;2023-04-24T01:49:59;16.05;;;10.40;;
36359;SDS011;22388;52.432;20.662;2023-04-24T01:53:24;21.70;;;10.63;;
36359;SDS011;22388;52.432;20.662;2023-04-24T01:56:48;17.65;;;11.02;;
36359;SDS011;22388;52.432;20.662;2023-04-24T02:00:12;18.83;;;11.23;;
36359;SDS011;22388;52.432;20.662;2023-04-24T02:03:43;18.05;;;11.43;;
36359;SDS011;22388;52.432;20.662;2023-04-24T02:07:07;19.17;;;10.73;;
36359;SDS011;22388;52.432;20.662;2023-04-24T02:10:31;19.95;;;10.40;;
36359;SDS011;22388;52.432;20.662;2023-04-24T02:13:55;18.25;;;12.20;;
36359;SDS011;22388;52.432;20.662;2023-04-24T02:17:19;17.77;;;11.30;;
36359;SDS011;22388;52.432;20.662;2023-04-24T02:20:43;20.10;;;11.38;;
36359;SDS011;22388;52.432;20.662;2023-04-24T02:24:08;21.77;;;11.90;;
36359;SDS011;22388;52.432;20.662;2023-04-24T02:27:32;16.98;;;10.52;;
36359;SDS011;22388;52.432;20.662;2023-04-24T02:30:57;18.33;;;10.73;;
36359;SDS011;22388;52.432;20.662;2023-04-24T02:34:21;18.27;;;10.98;;
36359;SDS011;22388;52.432;20.662;2023-04-24T02:37:45;17.05;;;10.10;;
36359;SDS011;22388;52.432;20.662;2023-04-24T02:41:09;17.65;;;11.23;;
36359;SDS011;22388;52.432;20.662;2023-04-24T02:44:33;17.67;;;11.98;;
36359;SDS011;22388;52.432;20.662;2023-04-24T02:47:59;19.30;;;11.68;;
36359;SDS011;22388;52.432;20.662;2023-04-24T02:51:24;16.00;;;11.30;;
36359;SDS011;22388;52.432;20.662;2023-04-24T02:54:48;17.65;;;12.13;;
36359;SDS011;22388;52.432;20.662;2023-04-24T02:58:12;19.42;;;11.27;;
36359;SDS011;22388;52.432;20.662;2023-04-24T03:01:36;19.45;;;12.27;;
36359;SDS011;22388;52.432;20.662;2023-04-24T03:05:01;21.67;;;11.95;;
36359;SDS011;22388;52.432;20.662;2023-04-24T03:08:25;21.98;;;11.65;;
36359;SDS011;22388;52.432;20.662;2023-04-24T03:11:49;18.20;;;11.85;;
36359;SDS011;22388;52.432;20.662;2023-04-24T03:15:13;20.83;;;12.55;;
36359;SDS011;22388;52.432;20.662;2023-04-24T03:18:37;20.23;;;11.80;;
36359;SDS011;22388;52.432;20.662;2023-04-24T03:22:02;20.10;;;12.13;;
36359;SDS011;22388;52.432;20.662;2023-04-24T03:25:26;19.10;;;12.55;;
36359;SDS011;22388;52.432;20.662;2023-04-24T03:28:50;17.23;;;11.93;;
36359;SDS011;22388;52.432;20.662;2023-04-24T03:32:19;19.38;;;11.77;;
36359;SDS011;22388;52.432;20.662;2023-04-24T03:35:43;20.08;;;12.15;;
36359;SDS011;22388;52.432;20.662;2023-04-24T03:39:07;18.33;;;11.63;;
36359;SDS011;22388;52.432;20.662;2023-04-24T03:42:32;17.45;;;11.93;;
36359;SDS011;22388;52.432;20.662;2023-04-24T03:45:58;18.88;;;11.73;;
36359;SDS011;22388;52.432;20.662;2023-04-24T03:49:23;17.40;;;10.90;;
36359;SDS011;22388;52.432;20.662;2023-04-24T03:52:47;16.30;;;11.85;;
36359;SDS011;22388;52.432;20.662;2023-04-24T03:56:11;17.80;;;11.65;;
36359;SDS011;22388;52.432;20.662;2023-04-24T03:59:35;20.58;;;12.20;;
36359;SDS011;22388;52.432;20.662;2023-04-24T04:02:59;20.52;;;12.82;;
36359;SDS011;22388;52.432;20.662;2023-04-24T04:06:24;20.52;;;12.52;;
36359;SDS011;22388;52.432;20.662;2023-04-24T04:09:48;18.40;;;11.52;;
36359;SDS011;22388;52.432;20.662;2023-04-24T04:13:12;23.80;;;12.82;;
36359;SDS011;22388;52.432;20.662;2023-04-24T04:16:36;21.30;;;12.85;;
36359;SDS011;22388;52.432;20.662;2023-04-24T04:20:00;36.22;;;12.85;;
36359;SDS011;22388;52.432;20.662;2023-04-24T04:23:26;30.10;;;13.40;;
36359;SDS011;22388;52.432;20.662;2023-04-24T04:26:51;22.75;;;12.60;;
36359;SDS011;22388;52.432;20.662;2023-04-24T04:30:16;28.90;;;12.45;;
36359;SDS011;22388;52.432;20.662;2023-04-24T04:33:40;22.73;;;12.73;;
36359;SDS011;22388;52.432;20.662;2023-04-24T04:37:05;25.85;;;12.75;;
36359;SDS011;22388;52.432;20.662;2023-04-24T04:40:29;26.60;;;12.65;;
36359;SDS011;22388;52.432;20.662;2023-04-24T04:43:53;20.73;;;12.93;;
36359;SDS011;22388;52.432;20.662;2023-04-24T04:47:18;22.95;;;13.30;;
36359;SDS011;22388;52.432;20.662;2023-04-24T04:50:44;19.17;;;12.63;;
36359;SDS011;22388;52.432;20.662;2023-04-24T04:54:08;23.90;;;13.25;;
36359;SDS011;22388;52.432;20.662;2023-04-24T04:57:33;27.08;;;13.93;;
36359;SDS011;22388;52.432;20.662;2023-04-24T05:00:58;21.08;;;13.05;;
36359;SDS011;22388;52.432;20.662;2023-04-24T05:04:23;18.40;;;12.18;;
36359;SDS011;22388;52.432;20.662;2023-04-24T05:07:48;29.60;;;13.13;;
36359;SDS011;22388;52.432;20.662;2023-04-24T05:11:12;21.05;;;12.82;;
36359;SDS011;22388;52.432;20.662;2023-04-24T05:14:36;18.98;;;12.38;;
36359;SDS011;22388;52.432;20.662;2023-04-24T05:18:00;21.90;;;13.00;;
36359;SDS011;22388;52.432;20.662;2023-04-24T05:21:24;23.50;;;13.48;;
36359;SDS011;22388;52.432;20.662;2023-04-24T05:24:49;21.25;;;12.88;;
36359;SDS011;22388;52.432;20.662;2023-04-24T05:28:13;22.25;;;13.55;;
36359;SDS011;22388;52.432;20.662;2023-04-24T05:31:37;25.58;;;13.68;;
36359;SDS011;22388;52.432;20.662;2023-04-24T05:35:01;25.50;;;11.68;;
36359;SDS011;22388;52.432;20.662;2023-04-24T05:38:25;17.02;;;11.98;;
36359;SDS011;22388;52.432;20.662;2023-04-24T05:41:50;21.15;;;11.40;;
36359;SDS011;22388;52.432;20.662;2023-04-24T05:45:14;19.67;;;12.02;;
36359;SDS011;22388;52.432;20.662;2023-04-24T05:48:38;17.00;;;10.82;;
36359;SDS011;22388;52.432;20.662;2023-04-24T05:52:02;22.67;;;12.10;;
36359;SDS011;22388;52.432;20.662;2023-04-24T05:55:27;20.33;;;11.05;;
36359;SDS011;22388;52.432;20.662;2023-04-24T05:58:51;19.35;;;11.45;;
36359;SDS011;22388;52.432;20.662;2023-04-24T06:02:16;23.08;;;10.88;;
36359;SDS011;22388;52.432;20.662;2023-04-24T06:05:40;21.20;;;12.00;;
36359;SDS011;22388;52.432;20.662;2023-04-24T06:09:05;22.00;;;11.23;;
36359;SDS011;22388;52.432;20.662;2023-04-24T06:12:29;21.65;;;11.55;;
36359;SDS011;22388;52.432;20.662;2023-04-24T06:15:53;21.00;;;11.10;;
36359;SDS011;22388;52.432;20.662;2023-04-24T06:19:18;16.98;;;10.43;;
36359;SDS011;22388;52.432;20.662;2023-04-24T06:22:42;20.13;;;11.25;;
36359;SDS011;22388;52.432;20.662;2023-04-24T06:26:06;18.35;;;10.52;;
36359;SDS011;22388;52.432;20.662;2023-04-24T06:29:30;21.00;;;10.25;;
36359;SDS011;22388;52.432;20.662;2023-04-24T06:32:54;20.95;;;10.07;;
36359;SDS011;22388;52.432;20.662;2023-04-24T06:36:19;14.90;;;10.35;;
36359;SDS011;22388;52.432;20.662;2023-04-24T06:39:43;22.23;;;10.45;;
36359;SDS011;22388;52.432;20.662;2023-04-24T06:43:07;16.25;;;9.85;;
36359;SDS011;22388;52.432;20.662;2023-04-24T06:46:32;19.58;;;10.77;;
36359;SDS011;22388;52.432;20.662;2023-04-24T06:49:56;17.63;;;10.05;;
36359;SDS011;22388;52.432;20.662;2023-04-24T06:53:20;20.08;;;10.55;;
36359;SDS011;22388;52.432;20.662;2023-04-24T06:56:44;19.20;;;10.60;;
36359;SDS011;22388;52.432;20.662;2023-04-24T07:00:10;17.55;;;10.30;;
36359;SDS011;22388;52.432;20.662;2023-04-24T07:03:35;18.48;;;10.25;;
36359;SDS011;22388;52.432;20.662;2023-04-24T07:06:59;20.17;;;10.10;;
36359;SDS011;22388;52.432;20.662;2023-04-24T07:10:23;19.58;;;10.38;;
36359;SDS011;22388;52.432;20.662;2023-04-24T07:13:47;38.25;;;10.75;;
36359;SDS011;22388;52.432;20.662;2023-04-24T07:17:11;20.80;;;10.45;;
36359;SDS011;22388;52.432;20.662;2023-04-24T07:20:35;19.33;;;9.25;;
36359;SDS011;22388;52.432;20.662;2023-04-24T07:24:00;15.88;;;8.52;;
36359;SDS011;22388;52.432;20.662;2023-04-24T07:27:25;17.48;;;9.45;;
36359;SDS011;22388;52.432;20.662;2023-04-24T07:30:50;27.17;;;9.60;;
36359;SDS011;22388;52.432;20.662;2023-04-24T07:34:14;19.50;;;8.55;;
36359;SDS011;22388;52.432;20.662;2023-04-24T07:37:38;15.63;;;8.35;;
36359;SDS011;22388;52.432;20.662;2023-04-24T07:41:02;21.40;;;9.07;;
36359;SDS011;22388;52.432;20.662;2023-04-24T07:44:27;22.83;;;8.57;;
36359;SDS011;22388;52.432;20.662;2023-04-24T07:47:53;21.98;;;8.68;;
36359;SDS011;22388;52.432;20.662;2023-04-24T07:51:17;20.63;;;8.40;;
36359;SDS011;22388;52.432;20.662;2023-04-24T07:54:41;15.10;;;7.85;;
36359;SDS011;22388;52.432;20.662;2023-04-24T07:58:05;22.42;;;8.80;;
36359;SDS011;22388;52.432;20.662;2023-04-24T08:01:32;19.25;;;8.40;;
36359;SDS011;22388;52.432;20.662;2023-04-24T08:04:56;13.90;;;8.18;;
36359;SDS011;22388;52.432;20.662;2023-04-24T08:08:58;17.02;;;7.82;;
36359;SDS011;22388;52.432;20.662;2023-04-24T08:12:25;17.27;;;8.18;;
36359;SDS011;22388;52.432;20.662;2023-04-24T08:15:49;17.67;;;7.75;;
36359;SDS011;22388;52.432;20.662;2023-04-24T08:19:13;17.45;;;7.60;;
36359;SDS011;22388;52.432;20.662;2023-04-24T08:22:41;15.18;;;7.28;;
36359;SDS011;22388;52.432;20.662;2023-04-24T08:26:05;16.70;;;7.55;;
36359;SDS011;22388;52.432;20.662;2023-04-24T08:29:30;11.82;;;6.80;;
36359;SDS011;22388;52.432;20.662;2023-04-24T08:32:56;13.20;;;7.13;;
36359;SDS011;22388;52.432;20.662;2023-04-24T08:36:20;17.17;;;7.40;;
36359;SDS011;22388;52.432;20.662;2023-04-24T08:39:45;13.05;;;7.25;;
36359;SDS011;22388;52.432;20.662;2023-04-24T08:43:11;13.27;;;7.22;;
36359;SDS011;22388;52.432;20.662;2023-04-24T08:46:35;16.17;;;7.13;;
36359;SDS011;22388;52.432;20.662;2023-04-24T08:50:02;18.95;;;7.35;;
36359;SDS011;22388;52.432;20.662;2023-04-24T08:53:27;11.80;;;6.35;;
36359;SDS011;22388;52.432;20.662;2023-04-24T08:56:51;10.20;;;5.70;;
36359;SDS011;22388;52.432;20.662;2023-04-24T09:00:18;11.20;;;5.30;;
36359;SDS011;22388;52.432;20.662;2023-04-24T09:03:44;94.78;;;9.20;;
36359;SDS011;22388;52.432;20.662;2023-04-24T09:07:09;8.55;;;4.22;;
36359;SDS011;22388;52.432;20.662;2023-04-24T09:10:40;16.15;;;4.80;;
36359;SDS011;22388;52.432;20.662;2023-04-24T09:14:04;12.13;;;4.35;;
36359;SDS011;22388;52.432;20.662;2023-04-24T09:17:30;8.65;;;4.63;;
36359;SDS011;22388;52.432;20.662;2023-04-24T09:20:58;7.80;;;4.75;;
36359;SDS011;22388;52.432;20.662;2023-04-24T09:24:22;10.02;;;5.22;;
36359;SDS011;22388;52.432;20.662;2023-04-24T09:27:46;10.88;;;5.07;;
36359;SDS011;22388;52.432;20.662;2023-04-24T09:31:15;10.52;;;4.65;;
36359;SDS011;22388;52.432;20.662;2023-04-24T09:38:37;15.35;;;4.85;;
36359;SDS011;22388;52.432;20.662;2023-04-24T09:42:01;19.05;;;4.80;;
36359;SDS011;22388;52.432;20.662;2023-04-24T09:45:37;16.27;;;4.72;;
36359;SDS011;22388;52.432;20.662;2023-04-24T09:49:08;19.67;;;4.97;;
36359;SDS011;22388;52.432;20.662;2023-04-24T09:52:40;11.43;;;4.75;;
36359;SDS011;22388;52.432;20.662;2023-04-24T09:56:08;9.88;;;4.85;;
36359;SDS011;22388;52.432;20.662;2023-04-24T09:59:34;13.38;;;4.50;;
36359;SDS011;22388;52.432;20.662;2023-04-24T10:02:59;20.20;;;4.90;;
36359;SDS011;22388;52.432;20.662;2023-04-24T10:06:29;11.13;;;4.80;;
36359;SDS011;22388;52.432;20.662;2023-04-24T10:09:54;11.77;;;4.40;;
36359;SDS011;22388;52.432;20.662;2023-04-24T10:13:18;15.00;;;4.63;;
36359;SDS011;22388;52.432;20.662;2023-04-24T10:16:43;11.43;;;4.70;;
36359;SDS011;22388;52.432;20.662;2023-04-24T10:20:08;13.93;;;4.63;;
36359;SDS011;22388;52.432;20.662;2023-04-24T10:23:32;11.13;;;4.32;;
36359;SDS011;22388;52.432;20.662;2023-04-24T10:26:56;12.63;;;4.85;;
36359;SDS011;22388;52.432;20.662;2023-04-24T10:30:25;11.65;;;5.03;;
36359;SDS011;22388;52.432;20.662;2023-04-24T10:33:50;10.43;;;4.75;;
36359;SDS011;22388;52.432;20.662;2023-04-24T10:37:15;14.32;;;4.72;;
36359;SDS011;22388;52.432;20.662;2023-04-24T10:40:41;12.23;;;4.90;;
36359;SDS011;22388;52.432;20.662;2023-04-24T10:44:06;11.60;;;5.20;;
36359;SDS011;22388;52.432;20.662;2023-04-24T10:47:39;13.35;;;5.03;;
36359;SDS011;22388;52.432;20.662;2023-04-24T10:51:11;9.85;;;4.65;;
36359;SDS011;22388;52.432;20.662;2023-04-24T10:58:07;12.05;;;4.70;;
36359;SDS011;22388;52.432;20.662;2023-04-24T11:01:34;9.70;;;4.40;;
36359;SDS011;22388;52.432;20.662;2023-04-24T11:05:03;12.50;;;4.80;;
36359;SDS011;22388;52.432;20.662;2023-04-24T11:08:38;15.05;;;5.00;;
36359;SDS011;22388;52.432;20.662;2023-04-24T11:12:06;12.23;;;4.65;;
36359;SDS011;22388;52.432;20.662;2023-04-24T11:15:30;12.85;;;4.95;;
36359;SDS011;22388;52.432;20.662;2023-04-24T11:19:05;8.55;;;4.13;;
36359;SDS011;22388;52.432;20.662;2023-04-24T11:22:34;10.85;;;4.57;;
36359;SDS011;22388;52.432;20.662;2023-04-24T11:26:17;7.50;;;4.43;;
36359;SDS011;22388;52.432;20.662;2023-04-24T11:33:09;8.48;;;4.97;;
36359;SDS011;22388;52.432;20.662;2023-04-24T11:36:35;8.77;;;4.22;;
36359;SDS011;22388;52.432;20.662;2023-04-24T11:39:59;14.35;;;4.22;;
36359;SDS011;22388;52.432;20.662;2023-04-24T11:43:24;8.63;;;3.85;;
36359;SDS011;22388;52.432;20.662;2023-04-24T11:46:48;7.45;;;3.85;;
36359;SDS011;22388;52.432;20.662;2023-04-24T11:50:13;7.45;;;3.40;;
36359;SDS011;22388;52.432;20.662;2023-04-24T11:53:40;8.95;;;4.10;;
36359;SDS011;22388;52.432;20.662;2023-04-24T11:57:11;23.75;;;6.57;;
36359;SDS011;22388;52.432;20.662;2023-04-24T12:00:35;7.25;;;3.33;;
36359;SDS011;22388;52.432;20.662;2023-04-24T12:04:08;8.63;;;3.30;;
36359;SDS011;22388;52.432;20.662;2023-04-24T12:07:32;4.10;;;3.25;;
36359;SDS011;22388;52.432;20.662;2023-04-24T12:11:05;7.10;;;3.28;;
36359;SDS011;22388;52.432;20.662;2023-04-24T12:14:29;6.03;;;3.28;;
36359;SDS011;22388;52.432;20.662;2023-04-24T12:17:54;6.35;;;3.53;;
36359;SDS011;22388;52.432;20.662;2023-04-24T12:21:21;7.05;;;3.10;;
36359;SDS011;22388;52.432;20.662;2023-04-24T12:24:55;7.90;;;3.35;;
36359;SDS011;22388;52.432;20.662;2023-04-24T12:28:20;7.93;;;3.88;;
36359;SDS011;22388;52.432;20.662;2023-04-24T12:31:47;8.48;;;4.00;;
36359;SDS011;22388;52.432;20.662;2023-04-24T12:35:13;7.55;;;3.92;;
36359;SDS011;22388;52.432;20.662;2023-04-24T12:38:37;8.05;;;3.92;;
36359;SDS011;22388;52.432;20.662;2023-04-24T12:42:06;10.30;;;4.22;;
36359;SDS011;22388;52.432;20.662;2023-04-24T12:45:40;6.72;;;3.85;;
36359;SDS011;22388;52.432;20.662;2023-04-24T12:49:04;12.68;;;4.40;;
36359;SDS011;22388;52.432;20.662;2023-04-24T12:52:29;10.52;;;4.40;;
36359;SDS011;22388;52.432;20.662;2023-04-24T12:55:56;9.90;;;4.30;;
36359;SDS011;22388;52.432;20.662;2023-04-24T12:59:21;13.02;;;4.60;;
36359;SDS011;22388;52.432;20.662;2023-04-24T13:02:45;11.25;;;4.60;;
36359;SDS011;22388;52.432;20.662;2023-04-24T13:06:10;14.05;;;4.10;;
36359;SDS011;22388;52.432;20.662;2023-04-24T13:09:34;9.38;;;4.18;;
36359;SDS011;22388;52.432;20.662;2023-04-24T13:12:59;12.40;;;5.10;;
36359;SDS011;22388;52.432;20.662;2023-04-24T13:16:23;13.70;;;4.55;;
36359;SDS011;22388;52.432;20.662;2023-04-24T13:19:49;9.48;;;4.22;;
36359;SDS011;22388;52.432;20.662;2023-04-24T13:23:13;19.65;;;4.28;;
36359;SDS011;22388;52.432;20.662;2023-04-24T13:26:38;25.50;;;4.10;;
36359;SDS011;22388;52.432;20.662;2023-04-24T13:30:05;34.63;;;5.10;;
36359;SDS011;22388;52.432;20.662;2023-04-24T13:33:31;13.95;;;4.10;;
36359;SDS011;22388;52.432;20.662;2023-04-24T13:36:56;16.67;;;3.70;;
36359;SDS011;22388;52.432;20.662;2023-04-24T13:40:20;13.77;;;3.75;;
36359;SDS011;22388;52.432;20.662;2023-04-24T13:43:44;10.23;;;3.70;;
36359;SDS011;22388;52.432;20.662;2023-04-24T13:47:08;9.27;;;3.72;;
36359;SDS011;22388;52.432;20.662;2023-04-24T13:50:34;12.77;;;4.40;;
36359;SDS011;22388;52.432;20.662;2023-04-24T13:53:59;10.13;;;3.38;;
36359;SDS011;22388;52.432;20.662;2023-04-24T13:57:23;7.55;;;3.55;;
36359;SDS011;22388;52.432;20.662;2023-04-24T14:00:47;5.35;;;3.17;;
36359;SDS011;22388;52.432;20.662;2023-04-24T14:04:12;4.95;;;3.13;;
36359;SDS011;22388;52.432;20.662;2023-04-24T14:07:38;6.13;;;3.30;;
36359;SDS011;22388;52.432;20.662;2023-04-24T14:11:02;5.90;;;3.42;;
36359;SDS011;22388;52.432;20.662;2023-04-24T14:14:27;7.35;;;3.50;;
36359;SDS011;22388;52.432;20.662;2023-04-24T14:17:51;5.10;;;3.50;;
36359;SDS011;22388;52.432;20.662;2023-04-24T14:21:15;7.13;;;3.30;;
36359;SDS011;22388;52.432;20.662;2023-04-24T14:24:40;11.15;;;3.72;;
36359;SDS011;22388;52.432;20.662;2023-04-24T14:28:05;7.15;;;3.10;;
36359;SDS011;22388;52.432;20.662;2023-04-24T14:31:30;8.73;;;3.20;;
36359;SDS011;22388;52.432;20.662;2023-04-24T14:34:54;8.30;;;3.72;;
36359;SDS011;22388;52.432;20.662;2023-04-24T14:38:18;5.13;;;3.53;;
36359;SDS011;22388;52.432;20.662;2023-04-24T14:41:42;7.65;;;3.20;;
36359;SDS011;22388;52.432;20.662;2023-04-24T14:45:06;7.78;;;3.70;;
36359;SDS011;22388;52.432;20.662;2023-04-24T14:48:31;5.95;;;3.70;;
36359;SDS011;22388;52.432;20.662;2023-04-24T14:51:55;10.07;;;3.60;;
36359;SDS011;22388;52.432;20.662;2023-04-24T14:55:23;10.50;;;4.03;;
36359;SDS011;22388;52.432;20.662;2023-04-24T14:58:48;11.07;;;4.15;;
36359;SDS011;22388;52.432;20.662;2023-04-24T15:02:12;6.60;;;3.70;;
36359;SDS011;22388;52.432;20.662;2023-04-24T15:05:36;9.70;;;4.03;;
36359;SDS011;22388;52.432;20.662;2023-04-24T15:09:00;11.75;;;3.35;;
36359;SDS011;22388;52.432;20.662;2023-04-24T15:12:24;15.48;;;3.55;;
36359;SDS011;22388;52.432;20.662;2023-04-24T15:15:48;7.75;;;3.65;;
36359;SDS011;22388;52.432;20.662;2023-04-24T15:19:12;5.68;;;3.28;;
36359;SDS011;22388;52.432;20.662;2023-04-24T15:22:37;7.80;;;3.55;;
36359;SDS011;22388;52.432;20.662;2023-04-24T15:26:01;8.75;;;3.22;;
36359;SDS011;22388;52.432;20.662;2023-04-24T15:29:26;8.00;;;3.17;;
36359;SDS011;22388;52.432;20.662;2023-04-24T15:32:51;11.65;;;3.40;;
36359;SDS011;22388;52.432;20.662;2023-04-24T15:36:16;8.48;;;3.30;;
36359;SDS011;22388;52.432;20.662;2023-04-24T15:39:40;11.32;;;3.15;;
36359;SDS011;22388;52.432;20.662;2023-04-24T15:43:09;10.48;;;3.17;;
36359;SDS011;22388;52.432;20.662;2023-04-24T15:46:36;12.68;;;3.75;;
36359;SDS011;22388;52.432;20.662;2023-04-24T15:50:02;10.38;;;3.58;;
36359;SDS011;22388;52.432;20.662;2023-04-24T15:53:26;9.63;;;3.58;;
36359;SDS011;22388;52.432;20.662;2023-04-24T15:56:50;10.20;;;3.10;;
36359;SDS011;22388;52.432;20.662;2023-04-24T16:00:15;7.13;;;3.30;;
36359;SDS011;22388;52.432;20.662;2023-04-24T16:03:39;7.85;;;3.30;;
36359;SDS011;22388;52.432;20.662;2023-04-24T16:07:03;5.90;;;3.40;;
36359;SDS011;22388;52.432;20.662;2023-04-24T16:10:27;12.43;;;3.33;;
36359;SDS011;22388;52.432;20.662;2023-04-24T16:13:51;8.43;;;3.40;;
36359;SDS011;22388;52.432;20.662;2023-04-24T16:17:15;7.20;;;3.50;;
36359;SDS011;22388;52.432;20.662;2023-04-24T16:20:41;7.13;;;3.55;;
36359;SDS011;22388;52.432;20.662;2023-04-24T16:24:05;8.60;;;3.65;;
36359;SDS011;22388;52.432;20.662;2023-04-24T16:27:30;9.65;;;3.40;;
36359;SDS011;22388;52.432;20.662;2023-04-24T16:30:54;21.88;;;4.22;;
36359;SDS011;22388;52.432;20.662;2023-04-24T16:34:18;15.88;;;4.43;;
36359;SDS011;22388;52.432;20.662;2023-04-24T16:37:43;8.38;;;4.65;;
36359;SDS011;22388;52.432;20.662;2023-04-24T16:41:07;13.32;;;4.97;;
36359;SDS011;22388;52.432;20.662;2023-04-24T16:44:31;16.65;;;5.40;;
36359;SDS011;22388;52.432;20.662;2023-04-24T16:47:55;12.15;;;5.53;;
36359;SDS011;22388;52.432;20.662;2023-04-24T16:51:19;13.32;;;5.28;;
36359;SDS011;22388;52.432;20.662;2023-04-24T16:54:43;10.70;;;5.18;;
36359;SDS011;22388;52.432;20.662;2023-04-24T16:58:08;8.90;;;5.15;;
36359;SDS011;22388;52.432;20.662;2023-04-24T17:01:33;17.17;;;5.90;;
36359;SDS011;22388;52.432;20.662;2023-04-24T17:04:57;22.23;;;6.07;;
36359;SDS011;22388;52.432;20.662;2023-04-24T17:08:21;21.02;;;6.30;;
36359;SDS011;22388;52.432;20.662;2023-04-24T17:11:46;12.38;;;5.50;;
36359;SDS011;22388;52.432;20.662;2023-04-24T17:15:11;12.23;;;5.13;;
36359;SDS011;22388;52.432;20.662;2023-04-24T17:18:35;19.85;;;5.30;;
36359;SDS011;22388;52.432;20.662;2023-04-24T17:22:00;10.40;;;5.30;;
36359;SDS011;22388;52.432;20.662;2023-04-24T17:25:24;13.40;;;5.03;;
36359;SDS011;22388;52.432;20.662;2023-04-24T17:28:49;13.32;;;4.70;;
36359;SDS011;22388;52.432;20.662;2023-04-24T17:32:13;11.88;;;4.70;;
36359;SDS011;22388;52.432;20.662;2023-04-24T17:35:37;10.80;;;4.70;;
36359;SDS011;22388;52.432;20.662;2023-04-24T17:39:02;16.48;;;4.70;;
36359;SDS011;22388;52.432;20.662;2023-04-24T17:42:27;11.65;;;4.63;;
36359;SDS011;22388;52.432;20.662;2023-04-24T17:45:51;13.85;;;4.75;;
36359;SDS011;22388;52.432;20.662;2023-04-24T17:49:16;16.10;;;4.93;;
36359;SDS011;22388;52.432;20.662;2023-04-24T17:52:42;10.35;;;4.47;;
36359;SDS011;22388;52.432;20.662;2023-04-24T17:56:06;12.90;;;4.68;;
36359;SDS011;22388;52.432;20.662;2023-04-24T17:59:31;7.68;;;4.68;;
36359;SDS011;22388;52.432;20.662;2023-04-24T18:02:55;17.27;;;5.32;;
36359;SDS011;22388;52.432;20.662;2023-04-24T18:06:19;8.43;;;4.95;;
36359;SDS011;22388;52.432;20.662;2023-04-24T18:09:43;12.00;;;5.30;;
36359;SDS011;22388;52.432;20.662;2023-04-24T18:13:07;14.35;;;5.65;;
36359;SDS011;22388;52.432;20.662;2023-04-24T18:16:32;11.85;;;4.75;;
36359;SDS011;22388;52.432;20.662;2023-04-24T18:19:56;15.90;;;5.55;;
36359;SDS011;22388;52.432;20.662;2023-04-24T18:23:20;12.48;;;5.78;;
36359;SDS011;22388;52.432;20.662;2023-04-24T18:26:46;46.00;;;6.93;;
36359;SDS011;22388;52.432;20.662;2023-04-24T18:30:10;22.67;;;6.25;;
36359;SDS011;22388;52.432;20.662;2023-04-24T18:33:35;19.00;;;6.10;;
36359;SDS011;22388;52.432;20.662;2023-04-24T18:36:59;12.35;;;6.25;;
36359;SDS011;22388;52.432;20.662;2023-04-24T18:40:23;23.73;;;6.40;;
36359;SDS011;22388;52.432;20.662;2023-04-24T18:43:48;10.38;;;5.97;;
36359;SDS011;22388;52.432;20.662;2023-04-24T18:47:12;14.88;;;6.78;;
36359;SDS011;22388;52.432;20.662;2023-04-24T18:50:36;12.07;;;6.93;;
36359;SDS011;22388;52.432;20.662;2023-04-24T18:54:00;13.95;;;7.10;;
36359;SDS011;22388;52.432;20.662;2023-04-24T18:57:25;14.02;;;7.53;;
36359;SDS011;22388;52.432;20.662;2023-04-24T19:00:50;13.80;;;7.10;;
36359;SDS011;22388;52.432;20.662;2023-04-24T19:04:14;12.50;;;7.15;;
36359;SDS011;22388;52.432;20.662;2023-04-24T19:07:38;13.35;;;8.00;;
36359;SDS011;22388;52.432;20.662;2023-04-24T19:11:03;15.70;;;7.97;;
36359;SDS011;22388;52.432;20.662;2023-04-24T19:14:30;16.33;;;7.93;;
36359;SDS011;22388;52.432;20.662;2023-04-24T19:17:54;14.07;;;8.30;;
36359;SDS011;22388;52.432;20.662;2023-04-24T19:21:18;13.68;;;7.97;;
36359;SDS011;22388;52.432;20.662;2023-04-24T19:24:43;15.93;;;8.70;;
36359;SDS011;22388;52.432;20.662;2023-04-24T19:28:08;14.77;;;8.40;;
36359;SDS011;22388;52.432;20.662;2023-04-24T19:31:32;16.27;;;8.52;;
36359;SDS011;22388;52.432;20.662;2023-04-24T19:34:56;18.27;;;9.60;;
36359;SDS011;22388;52.432;20.662;2023-04-24T19:38:20;21.67;;;10.35;;
36359;SDS011;22388;52.432;20.662;2023-04-24T19:41:44;18.25;;;9.75;;
36359;SDS011;22388;52.432;20.662;2023-04-24T19:45:12;16.00;;;9.77;;
36359;SDS011;22388;52.432;20.662;2023-04-24T19:48:40;19.92;;;10.52;;
36359;SDS011;22388;52.432;20.662;2023-04-24T19:52:05;17.63;;;10.00;;
36359;SDS011;22388;52.432;20.662;2023-04-24T19:55:30;23.63;;;9.60;;
36359;SDS011;22388;52.432;20.662;2023-04-24T19:58:54;16.52;;;9.93;;
36359;SDS011;22388;52.432;20.662;2023-04-24T20:02:18;18.83;;;9.75;;
36359;SDS011;22388;52.432;20.662;2023-04-24T20:05:43;25.92;;;9.88;;
36359;SDS011;22388;52.432;20.662;2023-04-24T20:09:13;34.47;;;10.15;;